sensor_id;sensor_type;location;lat;lon;timestamp;temperature;humidity
4677;DHT22;2352;48.180;11.478;2023-10-08T00:02:59;18.70;60.10
4677;DHT22;2352;48.180;11.478;2023-10-08T00:06:08;18.80;60.30
4677;DHT22;2352;48.180;11.478;2023-10-08T00:09:14;18.90;60.00
4677;DHT22;2352;48.180;11.478;2023-10-08T00:12:17;18.80;60.00
4677;DHT22;2352;48.180;11.478;2023-10-08T00:15:21;18.80;60.30
4677;DHT22;2352;48.180;11.478;2023-10-08T00:18:27;18.80;60.30
4677;DHT22;2352;48.180;11.478;2023-10-08T00:21:31;19.00;60.00
4677;DHT22;2352;48.180;11.478;2023-10-08T00:24:36;19.00;59.80
4677;DHT22;2352;48.180;11.478;2023-10-08T00:27:43;19.10;59.60
4677;DHT22;2352;48.180;11.478;2023-10-08T00:30:47;19.10;59.80
4677;DHT22;2352;48.180;11.478;2023-10-08T00:33:52;19.00;59.70
4677;DHT22;2352;48.180;11.478;2023-10-08T00:36:56;19.10;60.30
4677;DHT22;2352;48.180;11.478;2023-10-08T00:39:59;19.10;60.10
4677;DHT22;2352;48.180;11.478;2023-10-08T00:43:06;19.20;59.90
4677;DHT22;2352;48.180;11.478;2023-10-08T00:46:11;19.10;59.50
4677;DHT22;2352;48.180;11.478;2023-10-08T00:49:24;19.30;59.40
4677;DHT22;2352;48.180;11.478;2023-10-08T00:52:38;19.20;59.10
4677;DHT22;2352;48.180;11.478;2023-10-08T00:55:44;19.20;59.20
4677;DHT22;2352;48.180;11.478;2023-10-08T00:58:55;19.20;59.00
4677;DHT22;2352;48.180;11.478;2023-10-08T01:02:01;19.30;59.50
4677;DHT22;2352;48.180;11.478;2023-10-08T01:05:08;19.20;58.90
4677;DHT22;2352;48.180;11.478;2023-10-08T01:08:15;19.30;58.90
4677;DHT22;2352;48.180;11.478;2023-10-08T01:11:25;19.40;59.00
4677;DHT22;2352;48.180;11.478;2023-10-08T01:14:35;19.30;58.90
4677;DHT22;2352;48.180;11.478;2023-10-08T01:17:38;19.30;58.60
4677;DHT22;2352;48.180;11.478;2023-10-08T01:20:50;19.40;58.90
4677;DHT22;2352;48.180;11.478;2023-10-08T01:23:55;19.50;58.50
4677;DHT22;2352;48.180;11.478;2023-10-08T01:27:01;19.40;58.20
4677;DHT22;2352;48.180;11.478;2023-10-08T01:30:07;19.40;58.50
4677;DHT22;2352;48.180;11.478;2023-10-08T01:33:19;19.30;58.20
4677;DHT22;2352;48.180;11.478;2023-10-08T01:36:24;19.50;58.20
4677;DHT22;2352;48.180;11.478;2023-10-08T01:39:29;19.40;58.10
4677;DHT22;2352;48.180;11.478;2023-10-08T01:42:33;19.40;58.20
4677;DHT22;2352;48.180;11.478;2023-10-08T01:45:40;19.40;58.20
4677;DHT22;2352;48.180;11.478;2023-10-08T01:48:45;19.40;58.60
4677;DHT22;2352;48.180;11.478;2023-10-08T01:51:52;19.30;57.80
4677;DHT22;2352;48.180;11.478;2023-10-08T01:54:57;19.10;58.00
4677;DHT22;2352;48.180;11.478;2023-10-08T01:58:00;19.30;58.30
4677;DHT22;2352;48.180;11.478;2023-10-08T02:01:04;19.30;57.90
4677;DHT22;2352;48.180;11.478;2023-10-08T02:04:13;19.40;57.70
4677;DHT22;2352;48.180;11.478;2023-10-08T02:07:18;19.50;57.50
4677;DHT22;2352;48.180;11.478;2023-10-08T02:10:24;19.30;57.60
4677;DHT22;2352;48.180;11.478;2023-10-08T02:13:27;19.40;58.20
4677;DHT22;2352;48.180;11.478;2023-10-08T02:16:30;19.50;58.20
4677;DHT22;2352;48.180;11.478;2023-10-08T02:19:34;19.30;57.20
4677;DHT22;2352;48.180;11.478;2023-10-08T02:22:38;19.40;57.70
4677;DHT22;2352;48.180;11.478;2023-10-08T02:25:43;19.30;57.30
4677;DHT22;2352;48.180;11.478;2023-10-08T02:28:46;19.50;57.30
4677;DHT22;2352;48.180;11.478;2023-10-08T02:31:48;19.40;56.90
4677;DHT22;2352;48.180;11.478;2023-10-08T02:34:51;19.40;57.50
4677;DHT22;2352;48.180;11.478;2023-10-08T02:37:54;19.50;58.10
4677;DHT22;2352;48.180;11.478;2023-10-08T02:40:58;19.50;57.60
4677;DHT22;2352;48.180;11.478;2023-10-08T02:44:01;19.60;57.30
4677;DHT22;2352;48.180;11.478;2023-10-08T02:47:08;19.50;56.80
4677;DHT22;2352;48.180;11.478;2023-10-08T02:50:13;19.40;56.90
4677;DHT22;2352;48.180;11.478;2023-10-08T02:53:18;19.40;56.90
4677;DHT22;2352;48.180;11.478;2023-10-08T02:56:28;19.50;57.00
4677;DHT22;2352;48.180;11.478;2023-10-08T02:59:33;19.40;56.90
4677;DHT22;2352;48.180;11.478;2023-10-08T03:02:41;19.50;56.80
4677;DHT22;2352;48.180;11.478;2023-10-08T03:05:46;19.50;56.80
4677;DHT22;2352;48.180;11.478;2023-10-08T03:08:49;19.50;56.60
4677;DHT22;2352;48.180;11.478;2023-10-08T03:11:54;19.60;57.00
4677;DHT22;2352;48.180;11.478;2023-10-08T03:15:00;19.60;56.60
4677;DHT22;2352;48.180;11.478;2023-10-08T03:18:14;19.50;56.50
4677;DHT22;2352;48.180;11.478;2023-10-08T03:21:17;19.60;56.80
4677;DHT22;2352;48.180;11.478;2023-10-08T03:24:26;19.60;56.50
4677;DHT22;2352;48.180;11.478;2023-10-08T03:27:41;19.60;56.20
4677;DHT22;2352;48.180;11.478;2023-10-08T03:30:44;19.50;56.50
4677;DHT22;2352;48.180;11.478;2023-10-08T03:33:53;19.50;55.90
4677;DHT22;2352;48.180;11.478;2023-10-08T03:36:57;19.50;56.10
4677;DHT22;2352;48.180;11.478;2023-10-08T03:40:08;19.20;56.30
4677;DHT22;2352;48.180;11.478;2023-10-08T03:43:28;19.50;56.60
4677;DHT22;2352;48.180;11.478;2023-10-08T03:46:44;19.70;56.10
4677;DHT22;2352;48.180;11.478;2023-10-08T03:49:49;19.80;55.90
4677;DHT22;2352;48.180;11.478;2023-10-08T03:52:53;19.80;55.90
4677;DHT22;2352;48.180;11.478;2023-10-08T03:55:57;19.70;55.70
4677;DHT22;2352;48.180;11.478;2023-10-08T03:59:04;19.70;55.70
4677;DHT22;2352;48.180;11.478;2023-10-08T04:02:15;19.60;55.80
4677;DHT22;2352;48.180;11.478;2023-10-08T04:05:26;19.60;55.50
4677;DHT22;2352;48.180;11.478;2023-10-08T04:08:42;19.70;56.00
4677;DHT22;2352;48.180;11.478;2023-10-08T04:12:00;19.70;57.30
4677;DHT22;2352;48.180;11.478;2023-10-08T04:15:12;19.70;57.40
4677;DHT22;2352;48.180;11.478;2023-10-08T04:18:18;19.80;56.10
4677;DHT22;2352;48.180;11.478;2023-10-08T04:21:22;19.70;55.80
4677;DHT22;2352;48.180;11.478;2023-10-08T04:24:29;19.70;56.00
4677;DHT22;2352;48.180;11.478;2023-10-08T04:27:36;19.70;56.10
4677;DHT22;2352;48.180;11.478;2023-10-08T04:30:41;19.70;56.00
4677;DHT22;2352;48.180;11.478;2023-10-08T04:33:46;19.70;57.00
4677;DHT22;2352;48.180;11.478;2023-10-08T04:36:49;19.70;56.50
4677;DHT22;2352;48.180;11.478;2023-10-08T04:39:56;19.60;57.20
4677;DHT22;2352;48.180;11.478;2023-10-08T04:43:02;19.70;56.80
4677;DHT22;2352;48.180;11.478;2023-10-08T04:46:06;19.70;56.90
4677;DHT22;2352;48.180;11.478;2023-10-08T04:49:21;19.60;58.20
4677;DHT22;2352;48.180;11.478;2023-10-08T04:52:29;19.60;57.20
4677;DHT22;2352;48.180;11.478;2023-10-08T04:55:35;19.50;58.60
4677;DHT22;2352;48.180;11.478;2023-10-08T04:58:45;19.30;59.80
4677;DHT22;2352;48.180;11.478;2023-10-08T05:01:50;19.50;58.00
4677;DHT22;2352;48.180;11.478;2023-10-08T05:05:19;19.40;59.80
4677;DHT22;2352;48.180;11.478;2023-10-08T05:08:26;19.10;61.50
4677;DHT22;2352;48.180;11.478;2023-10-08T05:11:34;19.10;62.40
4677;DHT22;2352;48.180;11.478;2023-10-08T05:14:48;19.00;62.60
4677;DHT22;2352;48.180;11.478;2023-10-08T05:18:19;18.80;66.40
4677;DHT22;2352;48.180;11.478;2023-10-08T05:21:39;18.70;68.20
4677;DHT22;2352;48.180;11.478;2023-10-08T05:24:53;18.50;71.80
4677;DHT22;2352;48.180;11.478;2023-10-08T05:28:09;18.40;73.00
4677;DHT22;2352;48.180;11.478;2023-10-08T05:31:14;18.30;74.00
4677;DHT22;2352;48.180;11.478;2023-10-08T05:34:40;18.40;70.00
4677;DHT22;2352;48.180;11.478;2023-10-08T05:37:44;18.50;69.50
4677;DHT22;2352;48.180;11.478;2023-10-08T05:40:54;18.60;66.30
4677;DHT22;2352;48.180;11.478;2023-10-08T05:44:06;18.80;63.90
4677;DHT22;2352;48.180;11.478;2023-10-08T05:47:40;18.90;63.00
4677;DHT22;2352;48.180;11.478;2023-10-08T05:51:07;19.10;59.50
4677;DHT22;2352;48.180;11.478;2023-10-08T05:54:17;19.20;60.10
4677;DHT22;2352;48.180;11.478;2023-10-08T05:57:37;19.00;61.20
4677;DHT22;2352;48.180;11.478;2023-10-08T06:00:48;19.00;61.50
4677;DHT22;2352;48.180;11.478;2023-10-08T06:04:11;18.80;64.20
4677;DHT22;2352;48.180;11.478;2023-10-08T06:07:47;18.70;64.20
4677;DHT22;2352;48.180;11.478;2023-10-08T06:10:50;18.70;65.30
4677;DHT22;2352;48.180;11.478;2023-10-08T06:14:03;18.70;63.70
4677;DHT22;2352;48.180;11.478;2023-10-08T06:17:14;18.70;63.90
4677;DHT22;2352;48.180;11.478;2023-10-08T06:20:26;18.70;63.80
4677;DHT22;2352;48.180;11.478;2023-10-08T06:23:30;18.60;66.90
4677;DHT22;2352;48.180;11.478;2023-10-08T06:26:37;18.40;69.90
4677;DHT22;2352;48.180;11.478;2023-10-08T06:29:44;18.30;70.00
4677;DHT22;2352;48.180;11.478;2023-10-08T06:32:47;18.30;71.90
4677;DHT22;2352;48.180;11.478;2023-10-08T06:35:52;18.40;67.40
4677;DHT22;2352;48.180;11.478;2023-10-08T06:39:05;18.50;67.60
4677;DHT22;2352;48.180;11.478;2023-10-08T06:42:14;18.70;65.50
4677;DHT22;2352;48.180;11.478;2023-10-08T06:45:18;18.80;65.80
4677;DHT22;2352;48.180;11.478;2023-10-08T06:48:24;18.90;65.90
4677;DHT22;2352;48.180;11.478;2023-10-08T06:51:27;18.70;65.30
4677;DHT22;2352;48.180;11.478;2023-10-08T06:54:33;18.70;64.80
4677;DHT22;2352;48.180;11.478;2023-10-08T06:57:37;18.70;66.80
4677;DHT22;2352;48.180;11.478;2023-10-08T07:00:41;18.90;66.60
4677;DHT22;2352;48.180;11.478;2023-10-08T07:03:49;19.00;66.20
4677;DHT22;2352;48.180;11.478;2023-10-08T07:06:53;19.10;65.70
4677;DHT22;2352;48.180;11.478;2023-10-08T07:09:58;19.20;65.70
4677;DHT22;2352;48.180;11.478;2023-10-08T07:13:01;19.10;64.10
4677;DHT22;2352;48.180;11.478;2023-10-08T07:16:05;19.20;65.30
4677;DHT22;2352;48.180;11.478;2023-10-08T07:19:13;19.30;66.60
4677;DHT22;2352;48.180;11.478;2023-10-08T07:22:19;19.50;65.10
4677;DHT22;2352;48.180;11.478;2023-10-08T07:25:26;19.40;64.90
4677;DHT22;2352;48.180;11.478;2023-10-08T07:28:33;19.30;65.10
4677;DHT22;2352;48.180;11.478;2023-10-08T07:31:38;19.40;66.90
4677;DHT22;2352;48.180;11.478;2023-10-08T07:34:43;19.60;65.90
4677;DHT22;2352;48.180;11.478;2023-10-08T07:37:46;19.80;65.80
4677;DHT22;2352;48.180;11.478;2023-10-08T07:40:51;19.90;65.20
4677;DHT22;2352;48.180;11.478;2023-10-08T07:43:55;19.90;66.20
4677;DHT22;2352;48.180;11.478;2023-10-08T07:46:59;20.00;65.20
4677;DHT22;2352;48.180;11.478;2023-10-08T07:50:02;20.10;68.00
4677;DHT22;2352;48.180;11.478;2023-10-08T07:53:13;20.20;69.30
4677;DHT22;2352;48.180;11.478;2023-10-08T07:56:21;20.10;66.60
4677;DHT22;2352;48.180;11.478;2023-10-08T07:59:25;20.20;69.20
4677;DHT22;2352;48.180;11.478;2023-10-08T08:02:28;20.20;67.00
4677;DHT22;2352;48.180;11.478;2023-10-08T08:05:32;20.20;68.70
4677;DHT22;2352;48.180;11.478;2023-10-08T08:08:36;20.20;67.40
4677;DHT22;2352;48.180;11.478;2023-10-08T08:11:41;20.10;69.30
4677;DHT22;2352;48.180;11.478;2023-10-08T08:14:44;20.10;69.30
4677;DHT22;2352;48.180;11.478;2023-10-08T08:17:47;20.10;68.70
4677;DHT22;2352;48.180;11.478;2023-10-08T08:20:50;20.10;69.10
4677;DHT22;2352;48.180;11.478;2023-10-08T08:23:54;20.20;69.60
4677;DHT22;2352;48.180;11.478;2023-10-08T08:27:08;20.30;70.10
4677;DHT22;2352;48.180;11.478;2023-10-08T08:30:13;20.40;72.30
4677;DHT22;2352;48.180;11.478;2023-10-08T08:33:18;20.40;73.50
4677;DHT22;2352;48.180;11.478;2023-10-08T08:36:25;20.40;70.60
4677;DHT22;2352;48.180;11.478;2023-10-08T08:39:29;20.30;74.10
4677;DHT22;2352;48.180;11.478;2023-10-08T08:42:35;20.30;73.40
4677;DHT22;2352;48.180;11.478;2023-10-08T08:45:38;20.20;73.70
4677;DHT22;2352;48.180;11.478;2023-10-08T08:48:43;20.30;74.40
4677;DHT22;2352;48.180;11.478;2023-10-08T08:51:51;20.30;76.70
4677;DHT22;2352;48.180;11.478;2023-10-08T08:54:57;20.30;73.20
4677;DHT22;2352;48.180;11.478;2023-10-08T08:58:01;20.20;71.80
4677;DHT22;2352;48.180;11.478;2023-10-08T09:01:07;20.10;71.60
4677;DHT22;2352;48.180;11.478;2023-10-08T09:04:14;20.30;74.80
4677;DHT22;2352;48.180;11.478;2023-10-08T09:07:20;20.30;71.80
4677;DHT22;2352;48.180;11.478;2023-10-08T09:10:25;20.20;71.90
4677;DHT22;2352;48.180;11.478;2023-10-08T09:13:32;20.40;71.10
4677;DHT22;2352;48.180;11.478;2023-10-08T09:16:36;20.40;71.50
4677;DHT22;2352;48.180;11.478;2023-10-08T09:19:39;20.60;72.70
4677;DHT22;2352;48.180;11.478;2023-10-08T09:22:42;20.80;72.10
4677;DHT22;2352;48.180;11.478;2023-10-08T09:25:46;20.90;72.60
4677;DHT22;2352;48.180;11.478;2023-10-08T09:28:53;20.90;72.60
4677;DHT22;2352;48.180;11.478;2023-10-08T09:31:57;20.90;72.00
4677;DHT22;2352;48.180;11.478;2023-10-08T09:35:00;20.90;70.70
4677;DHT22;2352;48.180;11.478;2023-10-08T09:38:07;20.80;75.10
4677;DHT22;2352;48.180;11.478;2023-10-08T09:41:12;20.90;78.10
4677;DHT22;2352;48.180;11.478;2023-10-08T09:44:19;20.90;74.30
4677;DHT22;2352;48.180;11.478;2023-10-08T09:47:22;21.00;72.80
4677;DHT22;2352;48.180;11.478;2023-10-08T09:50:28;21.20;72.30
4677;DHT22;2352;48.180;11.478;2023-10-08T09:53:39;21.20;71.80
4677;DHT22;2352;48.180;11.478;2023-10-08T09:56:44;21.30;72.70
4677;DHT22;2352;48.180;11.478;2023-10-08T09:59:50;21.40;71.60
4677;DHT22;2352;48.180;11.478;2023-10-08T10:02:53;21.30;71.80
4677;DHT22;2352;48.180;11.478;2023-10-08T10:05:59;21.40;71.20
4677;DHT22;2352;48.180;11.478;2023-10-08T10:09:04;21.30;71.60
4677;DHT22;2352;48.180;11.478;2023-10-08T10:12:11;21.30;71.60
4677;DHT22;2352;48.180;11.478;2023-10-08T10:15:15;21.30;74.10
4677;DHT22;2352;48.180;11.478;2023-10-08T10:18:29;21.30;71.30
4677;DHT22;2352;48.180;11.478;2023-10-08T10:21:33;21.30;71.40
4677;DHT22;2352;48.180;11.478;2023-10-08T10:24:36;21.40;74.00
4677;DHT22;2352;48.180;11.478;2023-10-08T10:28:21;21.40;72.60
4677;DHT22;2352;48.180;11.478;2023-10-08T10:31:26;21.40;73.50
4677;DHT22;2352;48.180;11.478;2023-10-08T10:34:28;21.40;73.70
4677;DHT22;2352;48.180;11.478;2023-10-08T10:37:32;21.40;74.40
4677;DHT22;2352;48.180;11.478;2023-10-08T10:40:42;21.40;73.70
4677;DHT22;2352;48.180;11.478;2023-10-08T10:43:47;21.30;73.60
4677;DHT22;2352;48.180;11.478;2023-10-08T10:46:57;21.30;74.60
4677;DHT22;2352;48.180;11.478;2023-10-08T10:50:14;21.20;73.40
4677;DHT22;2352;48.180;11.478;2023-10-08T10:53:28;21.30;74.10
4677;DHT22;2352;48.180;11.478;2023-10-08T10:56:32;21.30;73.80
4677;DHT22;2352;48.180;11.478;2023-10-08T10:59:41;21.30;73.70
4677;DHT22;2352;48.180;11.478;2023-10-08T11:02:56;21.30;73.00
4677;DHT22;2352;48.180;11.478;2023-10-08T11:06:02;21.30;73.90
4677;DHT22;2352;48.180;11.478;2023-10-08T11:09:16;21.20;73.10
4677;DHT22;2352;48.180;11.478;2023-10-08T11:12:37;21.10;73.80
4677;DHT22;2352;48.180;11.478;2023-10-08T11:15:50;20.90;74.60
4677;DHT22;2352;48.180;11.478;2023-10-08T11:18:55;20.90;74.20
4677;DHT22;2352;48.180;11.478;2023-10-08T11:22:02;20.90;74.00
4677;DHT22;2352;48.180;11.478;2023-10-08T11:25:20;20.80;74.20
4677;DHT22;2352;48.180;11.478;2023-10-08T11:28:25;21.00;75.70
4677;DHT22;2352;48.180;11.478;2023-10-08T11:31:29;21.00;74.90
4677;DHT22;2352;48.180;11.478;2023-10-08T11:34:36;21.10;74.70
4677;DHT22;2352;48.180;11.478;2023-10-08T11:37:44;21.60;75.80
4677;DHT22;2352;48.180;11.478;2023-10-08T11:40:50;21.00;74.90
4677;DHT22;2352;48.180;11.478;2023-10-08T11:43:58;21.00;74.80
4677;DHT22;2352;48.180;11.478;2023-10-08T11:47:01;21.10;75.60
4677;DHT22;2352;48.180;11.478;2023-10-08T11:50:14;21.20;75.70
4677;DHT22;2352;48.180;11.478;2023-10-08T11:53:21;21.10;75.40
4677;DHT22;2352;48.180;11.478;2023-10-08T11:56:24;21.10;76.20
4677;DHT22;2352;48.180;11.478;2023-10-08T11:59:27;20.80;76.10
4677;DHT22;2352;48.180;11.478;2023-10-08T12:02:31;20.80;75.90
4677;DHT22;2352;48.180;11.478;2023-10-08T12:05:37;20.90;77.90
4677;DHT22;2352;48.180;11.478;2023-10-08T12:08:49;21.50;78.50
4677;DHT22;2352;48.180;11.478;2023-10-08T12:11:55;20.90;76.00
4677;DHT22;2352;48.180;11.478;2023-10-08T12:14:59;21.00;76.50
4677;DHT22;2352;48.180;11.478;2023-10-08T12:18:05;21.10;76.50
4677;DHT22;2352;48.180;11.478;2023-10-08T12:21:17;21.20;76.60
4677;DHT22;2352;48.180;11.478;2023-10-08T12:24:19;21.20;77.60
4677;DHT22;2352;48.180;11.478;2023-10-08T12:27:22;21.10;76.60
4677;DHT22;2352;48.180;11.478;2023-10-08T12:30:26;21.20;77.70
4677;DHT22;2352;48.180;11.478;2023-10-08T12:33:33;21.20;77.40
4677;DHT22;2352;48.180;11.478;2023-10-08T12:36:37;21.10;78.10
4677;DHT22;2352;48.180;11.478;2023-10-08T12:39:40;21.10;77.60
4677;DHT22;2352;48.180;11.478;2023-10-08T12:43:01;21.10;77.80
4677;DHT22;2352;48.180;11.478;2023-10-08T12:46:06;21.10;78.90
4677;DHT22;2352;48.180;11.478;2023-10-08T12:49:12;21.10;77.40
4677;DHT22;2352;48.180;11.478;2023-10-08T12:52:16;21.00;78.50
4677;DHT22;2352;48.180;11.478;2023-10-08T12:55:22;21.00;77.50
4677;DHT22;2352;48.180;11.478;2023-10-08T12:58:25;20.90;77.20
4677;DHT22;2352;48.180;11.478;2023-10-08T13:01:31;20.60;77.60
4677;DHT22;2352;48.180;11.478;2023-10-08T13:04:34;20.70;78.00
4677;DHT22;2352;48.180;11.478;2023-10-08T13:07:44;20.80;77.80
4677;DHT22;2352;48.180;11.478;2023-10-08T13:10:47;21.00;78.70
4677;DHT22;2352;48.180;11.478;2023-10-08T13:13:51;21.20;79.50
4677;DHT22;2352;48.180;11.478;2023-10-08T13:16:54;21.30;80.50
4677;DHT22;2352;48.180;11.478;2023-10-08T13:19:57;21.40;77.50
4677;DHT22;2352;48.180;11.478;2023-10-08T13:23:02;21.60;78.10
4677;DHT22;2352;48.180;11.478;2023-10-08T13:26:06;21.60;76.20
4677;DHT22;2352;48.180;11.478;2023-10-08T13:29:09;21.60;76.70
4677;DHT22;2352;48.180;11.478;2023-10-08T13:32:12;21.20;75.80
4677;DHT22;2352;48.180;11.478;2023-10-08T13:35:19;21.40;76.70
4677;DHT22;2352;48.180;11.478;2023-10-08T13:38:23;21.60;77.50
4677;DHT22;2352;48.180;11.478;2023-10-08T13:41:27;21.80;77.00
4677;DHT22;2352;48.180;11.478;2023-10-08T13:44:31;21.90;75.90
4677;DHT22;2352;48.180;11.478;2023-10-08T13:47:34;22.00;76.80
4677;DHT22;2352;48.180;11.478;2023-10-08T13:50:37;22.00;77.30
4677;DHT22;2352;48.180;11.478;2023-10-08T13:53:41;22.00;76.50
4677;DHT22;2352;48.180;11.478;2023-10-08T13:56:47;22.00;76.80
4677;DHT22;2352;48.180;11.478;2023-10-08T13:59:50;22.00;80.30
4677;DHT22;2352;48.180;11.478;2023-10-08T14:02:55;21.80;78.60
4677;DHT22;2352;48.180;11.478;2023-10-08T14:05:59;21.90;78.80
4677;DHT22;2352;48.180;11.478;2023-10-08T14:09:06;22.00;77.90
4677;DHT22;2352;48.180;11.478;2023-10-08T14:12:13;22.00;79.20
4677;DHT22;2352;48.180;11.478;2023-10-08T14:15:17;22.00;78.20
4677;DHT22;2352;48.180;11.478;2023-10-08T14:18:20;22.10;80.50
4677;DHT22;2352;48.180;11.478;2023-10-08T14:21:28;22.30;77.50
4677;DHT22;2352;48.180;11.478;2023-10-08T14:24:39;22.30;79.50
4677;DHT22;2352;48.180;11.478;2023-10-08T14:27:42;22.40;77.70
4677;DHT22;2352;48.180;11.478;2023-10-08T14:30:53;22.20;78.20
4677;DHT22;2352;48.180;11.478;2023-10-08T14:33:58;22.10;80.40
4677;DHT22;2352;48.180;11.478;2023-10-08T14:37:20;21.90;78.20
4677;DHT22;2352;48.180;11.478;2023-10-08T14:40:42;21.90;77.30
4677;DHT22;2352;48.180;11.478;2023-10-08T14:44:02;21.70;82.10
4677;DHT22;2352;48.180;11.478;2023-10-08T14:47:05;21.70;79.10
4677;DHT22;2352;48.180;11.478;2023-10-08T14:50:09;21.90;77.60
4677;DHT22;2352;48.180;11.478;2023-10-08T14:53:17;21.80;78.90
4677;DHT22;2352;48.180;11.478;2023-10-08T14:56:22;21.60;83.80
4677;DHT22;2352;48.180;11.478;2023-10-08T14:59:25;21.50;85.20
4677;DHT22;2352;48.180;11.478;2023-10-08T15:02:29;21.40;83.20
4677;DHT22;2352;48.180;11.478;2023-10-08T15:05:33;21.50;84.10
4677;DHT22;2352;48.180;11.478;2023-10-08T15:08:38;21.30;88.00
4677;DHT22;2352;48.180;11.478;2023-10-08T15:11:43;21.40;83.90
4677;DHT22;2352;48.180;11.478;2023-10-08T15:14:47;21.50;84.30
4677;DHT22;2352;48.180;11.478;2023-10-08T15:17:52;21.40;86.00
4677;DHT22;2352;48.180;11.478;2023-10-08T15:20:56;21.30;87.10
4677;DHT22;2352;48.180;11.478;2023-10-08T15:23:59;21.20;90.00
4677;DHT22;2352;48.180;11.478;2023-10-08T15:27:08;21.00;90.70
4677;DHT22;2352;48.180;11.478;2023-10-08T15:30:14;20.90;91.70
4677;DHT22;2352;48.180;11.478;2023-10-08T15:33:18;20.90;92.30
4677;DHT22;2352;48.180;11.478;2023-10-08T15:36:21;20.90;92.90
4677;DHT22;2352;48.180;11.478;2023-10-08T15:39:23;20.80;93.30
4677;DHT22;2352;48.180;11.478;2023-10-08T15:42:29;20.90;93.40
4677;DHT22;2352;48.180;11.478;2023-10-08T15:45:32;20.80;93.30
4677;DHT22;2352;48.180;11.478;2023-10-08T15:48:36;20.80;93.40
4677;DHT22;2352;48.180;11.478;2023-10-08T15:51:39;20.80;93.60
4677;DHT22;2352;48.180;11.478;2023-10-08T15:54:42;20.80;93.70
4677;DHT22;2352;48.180;11.478;2023-10-08T15:57:47;20.70;93.60
4677;DHT22;2352;48.180;11.478;2023-10-08T16:00:49;20.70;93.70
4677;DHT22;2352;48.180;11.478;2023-10-08T16:03:53;20.70;94.00
4677;DHT22;2352;48.180;11.478;2023-10-08T16:06:58;20.70;93.90
4677;DHT22;2352;48.180;11.478;2023-10-08T16:10:01;20.70;94.10
4677;DHT22;2352;48.180;11.478;2023-10-08T16:13:05;20.60;94.40
4677;DHT22;2352;48.180;11.478;2023-10-08T16:16:10;20.50;95.00
4677;DHT22;2352;48.180;11.478;2023-10-08T16:19:14;20.40;95.60
4677;DHT22;2352;48.180;11.478;2023-10-08T16:22:17;20.30;95.80
4677;DHT22;2352;48.180;11.478;2023-10-08T16:25:20;20.30;96.00
4677;DHT22;2352;48.180;11.478;2023-10-08T16:28:25;20.30;95.80
4677;DHT22;2352;48.180;11.478;2023-10-08T16:31:28;20.30;96.10
4677;DHT22;2352;48.180;11.478;2023-10-08T16:34:32;20.30;96.10
4677;DHT22;2352;48.180;11.478;2023-10-08T16:37:36;20.20;96.10
4677;DHT22;2352;48.180;11.478;2023-10-08T16:40:39;20.10;96.30
4677;DHT22;2352;48.180;11.478;2023-10-08T16:43:43;20.10;96.30
4677;DHT22;2352;48.180;11.478;2023-10-08T16:46:47;20.00;96.70
4677;DHT22;2352;48.180;11.478;2023-10-08T16:49:50;20.00;96.70
4677;DHT22;2352;48.180;11.478;2023-10-08T16:52:53;19.90;96.90
4677;DHT22;2352;48.180;11.478;2023-10-08T16:55:59;19.90;97.10
4677;DHT22;2352;48.180;11.478;2023-10-08T16:59:04;19.80;97.40
4677;DHT22;2352;48.180;11.478;2023-10-08T17:02:08;19.80;97.60
4677;DHT22;2352;48.180;11.478;2023-10-08T17:05:11;19.70;97.60
4677;DHT22;2352;48.180;11.478;2023-10-08T17:08:17;20.90;98.00
4677;DHT22;2352;48.180;11.478;2023-10-08T17:11:20;19.60;97.80
4677;DHT22;2352;48.180;11.478;2023-10-08T17:14:24;19.50;97.70
4677;DHT22;2352;48.180;11.478;2023-10-08T17:17:27;19.50;97.90
4677;DHT22;2352;48.180;11.478;2023-10-08T17:20:30;19.40;97.90
4677;DHT22;2352;48.180;11.478;2023-10-08T17:23:33;19.40;98.10
4677;DHT22;2352;48.180;11.478;2023-10-08T17:26:36;19.30;98.30
4677;DHT22;2352;48.180;11.478;2023-10-08T17:29:41;19.30;98.20
4677;DHT22;2352;48.180;11.478;2023-10-08T17:32:45;19.30;98.40
4677;DHT22;2352;48.180;11.478;2023-10-08T17:35:49;19.30;98.50
4677;DHT22;2352;48.180;11.478;2023-10-08T17:38:52;19.20;98.50
4677;DHT22;2352;48.180;11.478;2023-10-08T17:41:55;19.20;99.00
4677;DHT22;2352;48.180;11.478;2023-10-08T17:45:00;19.10;99.00
4677;DHT22;2352;48.180;11.478;2023-10-08T17:48:03;19.20;99.10
4677;DHT22;2352;48.180;11.478;2023-10-08T17:51:08;19.10;99.40
4677;DHT22;2352;48.180;11.478;2023-10-08T17:54:11;19.00;99.40
4677;DHT22;2352;48.180;11.478;2023-10-08T17:57:15;19.00;99.30
4677;DHT22;2352;48.180;11.478;2023-10-08T18:00:20;19.00;99.30
4677;DHT22;2352;48.180;11.478;2023-10-08T18:03:28;18.90;99.30
4677;DHT22;2352;48.180;11.478;2023-10-08T18:06:32;17.40;98.80
4677;DHT22;2352;48.180;11.478;2023-10-08T18:09:35;18.90;99.00
4677;DHT22;2352;48.180;11.478;2023-10-08T18:12:38;18.80;99.20
4677;DHT22;2352;48.180;11.478;2023-10-08T18:15:43;18.80;99.30
4677;DHT22;2352;48.180;11.478;2023-10-08T18:18:46;18.80;99.70
4677;DHT22;2352;48.180;11.478;2023-10-08T18:21:51;18.80;99.50
4677;DHT22;2352;48.180;11.478;2023-10-08T18:24:55;18.80;99.80
4677;DHT22;2352;48.180;11.478;2023-10-08T18:27:58;18.80;99.90
4677;DHT22;2352;48.180;11.478;2023-10-08T18:31:03;18.70;99.90
4677;DHT22;2352;48.180;11.478;2023-10-08T18:34:08;18.70;99.90
4677;DHT22;2352;48.180;11.478;2023-10-08T18:37:11;18.70;99.90
4677;DHT22;2352;48.180;11.478;2023-10-08T18:40:14;18.70;99.90
4677;DHT22;2352;48.180;11.478;2023-10-08T18:43:17;18.70;99.90
4677;DHT22;2352;48.180;11.478;2023-10-08T18:46:23;18.70;99.90
4677;DHT22;2352;48.180;11.478;2023-10-08T18:49:26;18.70;99.90
4677;DHT22;2352;48.180;11.478;2023-10-08T18:52:30;18.70;99.90
4677;DHT22;2352;48.180;11.478;2023-10-08T18:55:33;18.60;99.90
4677;DHT22;2352;48.180;11.478;2023-10-08T18:58:53;18.60;99.90
4677;DHT22;2352;48.180;11.478;2023-10-08T19:01:58;18.60;99.90
4677;DHT22;2352;48.180;11.478;2023-10-08T19:05:01;18.60;99.90
4677;DHT22;2352;48.180;11.478;2023-10-08T19:08:07;18.60;99.90
4677;DHT22;2352;48.180;11.478;2023-10-08T19:11:11;18.50;99.90
4677;DHT22;2352;48.180;11.478;2023-10-08T19:14:17;18.50;99.90
4677;DHT22;2352;48.180;11.478;2023-10-08T19:17:21;18.60;99.90
4677;DHT22;2352;48.180;11.478;2023-10-08T19:20:24;18.60;99.90
4677;DHT22;2352;48.180;11.478;2023-10-08T19:23:27;18.50;99.90
4677;DHT22;2352;48.180;11.478;2023-10-08T19:26:33;18.50;99.90
4677;DHT22;2352;48.180;11.478;2023-10-08T19:29:36;18.50;99.90
4677;DHT22;2352;48.180;11.478;2023-10-08T19:32:41;18.50;99.90
4677;DHT22;2352;48.180;11.478;2023-10-08T19:35:45;18.40;99.90
4677;DHT22;2352;48.180;11.478;2023-10-08T19:38:48;18.40;99.90
4677;DHT22;2352;48.180;11.478;2023-10-08T19:41:51;18.40;99.90
4677;DHT22;2352;48.180;11.478;2023-10-08T19:44:54;18.40;99.90
4677;DHT22;2352;48.180;11.478;2023-10-08T19:48:01;18.40;99.90
4677;DHT22;2352;48.180;11.478;2023-10-08T19:51:08;18.30;99.90
4677;DHT22;2352;48.180;11.478;2023-10-08T19:54:13;18.30;99.90
4677;DHT22;2352;48.180;11.478;2023-10-08T19:57:16;18.30;99.90